Terminal Aerodrome Forecast
Issued by NWS Midland/Odessa, TX

Home | Current Version | Previous Version | Text Only | Print | Product List | Glossary On
Versions: 1 2 3 4 5 6 7 8 9 10 11 12 13 14
000
FTUS44 KMAF 272320
TAFMAF
TAF
KMAF 272320Z 2800/2824 24014G20KT P6SM BKN250
     FM280100 24006KT P6SM BKN250
     FM281800 25025G35KT 6SM BLDU SCT150 BKN250=

USA.gov is the U.S. government's official web portal to all federal, state and local government web resources and services.